createdAt,value
2023-04-21T00:00:11.364Z,96534.19
2023-04-21T00:02:41.367Z,96541.78
2023-04-21T00:05:12.798Z,96544.94
2023-04-21T00:07:41.899Z,96547.09
2023-04-21T00:10:13.508Z,96546.53
2023-04-21T00:12:42.406Z,96543.22
2023-04-21T00:15:12.795Z,96545.88
2023-04-21T00:17:41.648Z,96544.38
2023-04-21T00:20:11.631Z,96542.19
2023-04-21T00:22:39.970Z,96545.63
2023-04-21T00:25:09.605Z,96540.91
2023-04-21T00:27:40.064Z,96539.47
2023-04-21T00:30:10.219Z,96542.50
2023-04-21T00:32:39.297Z,96539.09
2023-04-21T00:35:08.794Z,96552.66
2023-04-21T00:37:37.188Z,96542.91
2023-04-21T00:40:07.212Z,96546.84
2023-04-21T00:42:36.003Z,96542.22
2023-04-21T00:45:06.883Z,96544.34
2023-04-21T00:47:35.691Z,96547.53
2023-04-21T00:50:05.158Z,96544.53
2023-04-21T00:52:34.850Z,96544.34
2023-04-21T00:55:05.658Z,96555.06
2023-04-21T00:57:35.496Z,96545.22
2023-04-21T01:00:07.909Z,96550.03
2023-04-21T01:02:38.548Z,96547.63
2023-04-21T01:05:09.321Z,96554.16
2023-04-21T01:07:40.480Z,96551.16
2023-04-21T01:10:10.261Z,96548.84
2023-04-21T01:12:45.312Z,96545.72
2023-04-21T01:15:18.364Z,96544.59
2023-04-21T01:17:47.041Z,96541.09
2023-04-21T01:20:16.638Z,96547.53
2023-04-21T01:22:46.982Z,96541.47
2023-04-21T01:25:17.656Z,96549.84
2023-04-21T01:27:46.628Z,96552.56
2023-04-21T01:30:16.561Z,96547.72
2023-04-21T01:32:45.342Z,96549.94
2023-04-21T01:35:14.033Z,96543.72
2023-04-21T01:37:42.783Z,96544.59
2023-04-21T01:40:14.139Z,96546.09
2023-04-21T01:42:44.576Z,96539.41
2023-04-21T01:45:13.980Z,96539.47
2023-04-21T01:47:43.041Z,96526.09
2023-04-21T01:50:11.909Z,96528.25
2023-04-21T01:52:40.613Z,96532.97
2023-04-21T01:55:10.483Z,96525.91
2023-04-21T01:57:40.475Z,96521.41
2023-04-21T02:00:10.617Z,96525.59
2023-04-21T02:02:46.535Z,96528.41
2023-04-21T02:05:15.640Z,96523.06
2023-04-21T02:07:44.231Z,96523.13
2023-04-21T02:10:12.736Z,96523.31
2023-04-21T02:12:42.453Z,96516.28
2023-04-21T02:15:12.829Z,96508.63
2023-04-21T02:17:42.850Z,96494.28
2023-04-21T02:20:13.216Z,96493.31
2023-04-21T02:22:41.979Z,96510.22
2023-04-21T02:25:11.087Z,96514.69
2023-04-21T02:27:42.205Z,96516.09
2023-04-21T02:30:11.973Z,96522.03
2023-04-21T02:32:40.877Z,96532.56
2023-04-21T02:35:10.345Z,96533.69
2023-04-21T02:37:38.940Z,96551.88
2023-04-21T02:40:09.374Z,96552.69
2023-04-21T02:42:38.093Z,96561.31
2023-04-21T02:45:09.917Z,96552.56
2023-04-21T02:47:38.568Z,96557.38
2023-04-21T02:50:08.045Z,96544.81
2023-04-21T02:52:38.273Z,96535.34
2023-04-21T02:55:07.691Z,96535.06
2023-04-21T02:57:36.285Z,96534.16
2023-04-21T03:00:07.455Z,96535.31
2023-04-21T03:02:37.568Z,96531.41
2023-04-21T03:05:06.662Z,96533.44
2023-04-21T03:07:35.814Z,96551.22
2023-04-21T03:10:07.260Z,96542.38
2023-04-21T03:12:35.845Z,96532.13
2023-04-21T03:15:06.153Z,96523.19
2023-04-21T03:17:38.092Z,96531.03
2023-04-21T03:20:08.590Z,96526.53
2023-04-21T03:22:37.352Z,96531.25
2023-04-21T03:25:07.677Z,96523.13
2023-04-21T03:27:36.383Z,96524.81
2023-04-21T03:30:06.752Z,96526.84
2023-04-21T03:32:37.215Z,96524.44
2023-04-21T03:35:06.350Z,96534.38
2023-04-21T03:37:36.143Z,96531.00
2023-04-21T03:40:08.641Z,96529.06
2023-04-21T03:42:37.652Z,96526.97
2023-04-21T03:45:08.469Z,96531.91
2023-04-21T03:47:38.709Z,96525.88
2023-04-21T03:50:08.669Z,96521.72
2023-04-21T03:52:37.152Z,96520.94
2023-04-21T03:55:08.936Z,96540.53
2023-04-21T03:57:37.240Z,96538.41
2023-04-21T04:00:07.072Z,96540.03
2023-04-21T04:02:42.830Z,96543.72
2023-04-21T04:05:11.332Z,96539.13
2023-04-21T04:07:39.972Z,96536.00
2023-04-21T04:10:08.811Z,96535.91
2023-04-21T04:12:37.629Z,96537.41
2023-04-21T04:15:08.503Z,96527.72
2023-04-21T04:17:36.830Z,96527.72
2023-04-21T04:20:08.797Z,96505.03
2023-04-21T04:22:37.549Z,96510.38
2023-04-21T04:25:07.111Z,96512.16
2023-04-21T04:27:35.755Z,96504.84
2023-04-21T04:30:04.609Z,96500.91
2023-04-21T04:32:34.103Z,96516.56
2023-04-21T04:35:02.816Z,96525.13
2023-04-21T04:37:34.446Z,96528.31
2023-04-21T04:40:05.590Z,96535.84
2023-04-21T04:42:34.781Z,96543.88
2023-04-21T04:45:03.861Z,96540.06
2023-04-21T04:47:32.560Z,96540.25
2023-04-21T04:50:01.407Z,96543.66
2023-04-21T04:52:30.086Z,96548.59
2023-04-21T04:55:00.199Z,96555.50
2023-04-21T04:57:28.533Z,96559.59
2023-04-21T04:59:58.550Z,96551.09
2023-04-21T05:02:27.349Z,96557.44
2023-04-21T05:04:56.161Z,96550.41
2023-04-21T05:07:25.101Z,96551.66
2023-04-21T05:09:54.532Z,96560.56
2023-04-21T05:12:24.158Z,96562.06
2023-04-21T05:14:52.737Z,96565.81
2023-04-21T05:17:21.340Z,96567.81
2023-04-21T05:19:49.908Z,96572.94
2023-04-21T05:22:18.585Z,96581.75
2023-04-21T05:24:46.813Z,96582.44
2023-04-21T05:27:15.727Z,96586.06
2023-04-21T05:29:45.763Z,96587.72
2023-04-21T05:32:14.573Z,96580.25
2023-04-21T05:34:43.247Z,96574.25
2023-04-21T05:37:12.902Z,96584.81
2023-04-21T05:39:41.509Z,96586.47
2023-04-21T05:42:11.904Z,96582.09
2023-04-21T05:44:41.082Z,96579.88
2023-04-21T05:47:11.133Z,96578.50
2023-04-21T05:49:39.694Z,96579.22
2023-04-21T05:52:11.469Z,96581.41
2023-04-21T05:54:40.805Z,96578.25
2023-04-21T05:57:09.682Z,96571.13
2023-04-21T05:59:38.404Z,96570.22
2023-04-21T06:02:07.194Z,96580.63
2023-04-21T06:04:36.995Z,96576.78
2023-04-21T06:07:09.753Z,96567.81
2023-04-21T06:09:38.714Z,96570.06
2023-04-21T06:12:07.736Z,96574.06
2023-04-21T06:14:36.449Z,96580.00
2023-04-21T06:17:05.257Z,96579.34
2023-04-21T06:19:41.874Z,96582.38
2023-04-21T06:22:10.582Z,96580.16
2023-04-21T06:24:39.149Z,96578.25
2023-04-21T06:27:12.836Z,96578.41
2023-04-21T06:29:42.705Z,96583.38
2023-04-21T06:32:11.909Z,96580.47
2023-04-21T06:34:41.928Z,96578.06
2023-04-21T06:37:12.277Z,96589.88
2023-04-21T06:39:40.901Z,96589.47
2023-04-21T06:42:10.220Z,96591.00
2023-04-21T06:44:44.378Z,96583.56
2023-04-21T06:47:13.074Z,96570.50
2023-04-21T06:49:43.290Z,96565.19
2023-04-21T06:52:12.199Z,96570.69
2023-04-21T06:54:40.920Z,96576.75
2023-04-21T06:57:09.496Z,96587.44
2023-04-21T06:59:38.158Z,96593.22
2023-04-21T07:02:06.971Z,96591.94
2023-04-21T07:04:35.361Z,96584.63
2023-04-21T07:07:05.001Z,96581.06
2023-04-21T07:09:34.056Z,96583.13
2023-04-21T07:12:03.010Z,96580.84
2023-04-21T07:14:31.651Z,96581.53
2023-04-21T07:17:00.436Z,96580.53
2023-04-21T07:19:29.289Z,96577.06
2023-04-21T07:21:58.265Z,96576.16
2023-04-21T07:24:28.279Z,96576.94
2023-04-21T07:26:56.912Z,96568.13
2023-04-21T07:29:25.378Z,96565.00
2023-04-21T07:31:54.618Z,96566.94
2023-04-21T07:34:23.498Z,96572.38
2023-04-21T07:36:52.894Z,96569.94
2023-04-21T07:39:21.804Z,96571.28
2023-04-21T07:41:51.942Z,96578.34
2023-04-21T07:44:20.623Z,96582.13
2023-04-21T07:46:49.245Z,96571.53
2023-04-21T07:49:18.308Z,96583.72
2023-04-21T07:51:46.977Z,96583.28
2023-04-21T07:54:15.850Z,96588.59
2023-04-21T07:56:44.542Z,96584.94
2023-04-21T07:59:14.864Z,96589.53
2023-04-21T08:01:43.476Z,96581.69
2023-04-21T08:04:12.244Z,96590.47
2023-04-21T08:06:41.434Z,96588.56
2023-04-21T08:09:10.230Z,96592.66
2023-04-21T08:11:38.897Z,96597.50
2023-04-21T08:14:09.551Z,96597.41
2023-04-21T08:16:40.431Z,96587.81
2023-04-21T08:19:09.494Z,96584.22
2023-04-21T08:21:38.574Z,96581.22
2023-04-21T08:24:07.833Z,96588.03
2023-04-21T08:26:37.805Z,96581.28
2023-04-21T08:29:07.428Z,96573.53
2023-04-21T08:31:36.268Z,96577.50
2023-04-21T08:34:07.320Z,96569.75
2023-04-21T08:36:36.038Z,96563.44
2023-04-21T08:39:04.650Z,96564.44
2023-04-21T08:41:33.329Z,96570.28
2023-04-21T08:44:01.615Z,96567.63
2023-04-21T08:46:30.355Z,96561.56
2023-04-21T08:49:00.615Z,96561.34
2023-04-21T08:51:31.237Z,96557.19
2023-04-21T08:53:59.773Z,96567.91
2023-04-21T08:56:28.931Z,96563.94
2023-04-21T08:58:57.994Z,96554.38
2023-04-21T09:01:26.627Z,96560.13
2023-04-21T09:03:55.583Z,96558.59
2023-04-21T09:06:24.300Z,96554.28
2023-04-21T09:08:57.650Z,96554.34
2023-04-21T09:11:26.317Z,96555.22
2023-04-21T09:13:58.883Z,96558.38
2023-04-21T09:16:33.658Z,96564.19
2023-04-21T09:19:02.448Z,96569.78
2023-04-21T09:21:32.618Z,96564.69
2023-04-21T09:24:07.673Z,96557.97
2023-04-21T09:26:39.030Z,96567.88
2023-04-21T09:29:08.146Z,96559.56
2023-04-21T09:31:37.850Z,96555.44
2023-04-21T09:34:21.755Z,96554.34
2023-04-21T09:36:50.533Z,96567.50
2023-04-21T09:39:38.358Z,96556.34
2023-04-21T09:42:12.996Z,96554.38
2023-04-21T09:44:53.238Z,96556.78
2023-04-21T09:47:31.218Z,96560.22
2023-04-21T09:50:00.463Z,96552.63
2023-04-21T09:52:31.312Z,96551.03
2023-04-21T09:55:04.361Z,96554.28
2023-04-21T09:57:39.207Z,96552.31
2023-04-21T10:00:12.113Z,96540.50
2023-04-21T10:02:49.731Z,96549.19
2023-04-21T10:05:18.752Z,96543.09
2023-04-21T10:07:47.971Z,96540.22
2023-04-21T10:10:22.547Z,96533.25
2023-04-21T10:12:52.251Z,96529.97
2023-04-21T10:15:35.740Z,96536.00
2023-04-21T10:18:16.316Z,96529.72
2023-04-21T10:20:56.793Z,96522.31
2023-04-21T10:23:38.992Z,96519.84
2023-04-21T10:26:23.207Z,96519.00
2023-04-21T10:28:57.665Z,96528.44
2023-04-21T10:31:32.308Z,96526.50
2023-04-21T10:34:22.480Z,96522.91
2023-04-21T10:37:13.268Z,96527.88
2023-04-21T10:39:48.332Z,96524.91
2023-04-21T10:42:27.254Z,96523.53
2023-04-21T10:45:07.590Z,96509.72
2023-04-21T10:47:51.474Z,96507.56
2023-04-21T10:50:26.206Z,96506.44
2023-04-21T10:52:57.722Z,96502.97
2023-04-21T10:55:29.051Z,96509.88
2023-04-21T10:58:02.480Z,96498.78
2023-04-21T11:00:30.973Z,96495.47
2023-04-21T11:03:03.028Z,96500.84
2023-04-21T11:05:38.460Z,96501.50
2023-04-21T11:08:09.973Z,96495.09
2023-04-21T11:10:54.870Z,96505.28
2023-04-21T11:13:27.212Z,96486.03
2023-04-21T11:16:00.896Z,96480.25
2023-04-21T11:18:44.460Z,96484.44
2023-04-21T11:21:21.650Z,96478.44
2023-04-21T11:23:55.628Z,96477.75
2023-04-21T11:26:34.679Z,96488.22
2023-04-21T11:29:06.687Z,96468.81
2023-04-21T11:31:36.770Z,96476.41
2023-04-21T11:34:06.881Z,96476.63
2023-04-21T11:36:35.799Z,96473.31
2023-04-21T11:39:08.238Z,96475.34
2023-04-21T11:41:37.259Z,96479.09
2023-04-21T11:44:07.863Z,96478.28
2023-04-21T11:46:37.903Z,96475.22
2023-04-21T11:49:08.345Z,96475.34
2023-04-21T11:51:38.801Z,96477.72
2023-04-21T11:54:08.643Z,96469.16
2023-04-21T11:56:38.814Z,96457.97
2023-04-21T11:59:13.951Z,96466.22
2023-04-21T12:01:46.143Z,96469.63
2023-04-21T12:04:19.803Z,96466.84
2023-04-21T12:06:58.881Z,96468.91
2023-04-21T12:09:28.587Z,96470.84
2023-04-21T12:11:59.717Z,96468.25
2023-04-21T12:14:29.587Z,96466.09
2023-04-21T12:17:00.004Z,96458.38
2023-04-21T12:19:39.553Z,96468.00
2023-04-21T12:22:10.320Z,96459.06
2023-04-21T12:24:39.997Z,96463.22
2023-04-21T12:27:09.633Z,96464.38
2023-04-21T12:29:39.274Z,96462.63
2023-04-21T12:32:08.678Z,96456.69
2023-04-21T12:34:37.564Z,96462.25
2023-04-21T12:37:06.351Z,96454.63
2023-04-21T12:39:35.829Z,96452.69
2023-04-21T12:42:04.510Z,96455.78
2023-04-21T12:44:33.093Z,96449.06
2023-04-21T12:47:03.338Z,96448.22
2023-04-21T12:49:32.310Z,96446.91
2023-04-21T12:52:01.336Z,96445.88
2023-04-21T12:54:29.948Z,96448.00
2023-04-21T12:56:59.108Z,96447.75
2023-04-21T12:59:27.507Z,96448.63
2023-04-21T13:01:56.201Z,96444.53
2023-04-21T13:04:26.764Z,96452.84
2023-04-21T13:06:57.976Z,96444.19
2023-04-21T13:09:26.625Z,96436.03
2023-04-21T13:11:56.348Z,96437.25
2023-04-21T13:14:25.495Z,96438.56
2023-04-21T13:16:55.086Z,96437.63
2023-04-21T13:19:25.705Z,96433.94
2023-04-21T13:21:54.684Z,96422.13
2023-04-21T13:24:23.688Z,96421.63
2023-04-21T13:26:52.283Z,96419.13
2023-04-21T13:29:20.842Z,96422.63
2023-04-21T13:31:49.131Z,96422.16
2023-04-21T13:34:17.871Z,96417.44
2023-04-21T13:36:48.527Z,96417.44
2023-04-21T13:39:17.384Z,96412.25
2023-04-21T13:41:45.772Z,96408.94
2023-04-21T13:44:14.329Z,96408.31
2023-04-21T13:46:43.104Z,96402.16
2023-04-21T13:49:12.384Z,96401.59
2023-04-21T13:51:41.214Z,96398.81
2023-04-21T13:54:11.423Z,96399.94
2023-04-21T13:56:40.325Z,96401.22
2023-04-21T13:59:10.975Z,96396.25
2023-04-21T14:01:39.927Z,96383.50
2023-04-21T14:04:08.863Z,96390.88
2023-04-21T14:06:37.732Z,96388.66
2023-04-21T14:09:06.635Z,96389.66
2023-04-21T14:11:36.319Z,96390.59
2023-04-21T14:16:36.374Z,96393.19
2023-04-21T14:19:04.772Z,96385.47
2023-04-21T14:21:33.554Z,96373.31
2023-04-21T14:24:01.852Z,96375.53
2023-04-21T14:26:30.579Z,96363.63
2023-04-21T14:29:01.539Z,96361.72
2023-04-21T14:31:30.332Z,96361.50
2023-04-21T14:33:59.028Z,96356.47
2023-04-21T14:36:27.974Z,96346.34
2023-04-21T14:38:56.732Z,96356.91
2023-04-21T14:41:25.340Z,96346.16
2023-04-21T14:43:56.513Z,96350.25
2023-04-21T14:46:29.134Z,96341.53
2023-04-21T14:48:58.125Z,96338.66
2023-04-21T14:51:26.392Z,96333.69
2023-04-21T14:53:55.096Z,96332.41
2023-04-21T14:56:23.758Z,96339.09
2023-04-21T14:58:52.371Z,96329.72
2023-04-21T15:01:23.112Z,96321.16
2023-04-21T15:03:57.671Z,96326.22
2023-04-21T15:06:28.004Z,96319.84
2023-04-21T15:08:57.124Z,96318.31
2023-04-21T15:11:26.395Z,96329.72
2023-04-21T15:13:55.138Z,96327.19
2023-04-21T15:16:23.770Z,96325.63
2023-04-21T15:18:55.303Z,96324.19
2023-04-21T15:21:24.017Z,96318.28
2023-04-21T15:23:52.717Z,96318.56
2023-04-21T15:26:21.783Z,96316.03
2023-04-21T15:28:50.442Z,96320.72
2023-04-21T15:31:19.697Z,96305.97
2023-04-21T15:33:48.499Z,96315.97
2023-04-21T15:36:18.530Z,96309.19
2023-04-21T15:38:47.155Z,96298.00
2023-04-21T15:41:17.534Z,96298.00
2023-04-21T15:43:46.380Z,96304.47
2023-04-21T15:46:15.016Z,96306.94
2023-04-21T15:48:44.402Z,96299.78
2023-04-21T15:51:14.474Z,96291.63
2023-04-21T15:53:47.781Z,96298.56
2023-04-21T15:56:16.734Z,96294.00
2023-04-21T15:58:45.327Z,96294.13
2023-04-21T16:01:14.011Z,96285.94
2023-04-21T16:03:42.943Z,96291.94
2023-04-21T16:06:11.860Z,96294.75
2023-04-21T16:08:40.956Z,96298.28
2023-04-21T16:11:11.036Z,96297.72
2023-04-21T16:13:39.704Z,96282.41
2023-04-21T16:16:09.272Z,96293.91
2023-04-21T16:18:38.191Z,96280.25
2023-04-21T16:21:07.208Z,96285.16
2023-04-21T16:23:36.157Z,96284.53
2023-04-21T16:26:06.532Z,96282.22
2023-04-21T16:28:37.141Z,96276.53
2023-04-21T16:31:06.203Z,96285.28
2023-04-21T16:33:34.961Z,96280.78
2023-04-21T16:36:03.795Z,96276.31
2023-04-21T16:38:32.513Z,96275.69
2023-04-21T16:41:01.171Z,96271.81
2023-04-21T16:43:29.881Z,96272.69
2023-04-21T16:46:00.345Z,96267.59
2023-04-21T16:48:29.077Z,96274.34
2023-04-21T16:50:58.363Z,96274.38
2023-04-21T16:53:27.706Z,96281.53
2023-04-21T16:55:56.292Z,96280.75
2023-04-21T16:58:26.186Z,96287.09
2023-04-21T17:00:54.965Z,96287.50
2023-04-21T17:03:26.435Z,96294.22
2023-04-21T17:05:55.572Z,96285.53
2023-04-21T17:08:24.201Z,96287.50
2023-04-21T17:10:52.830Z,96296.56
2023-04-21T17:13:21.599Z,96281.53
2023-04-21T17:15:50.721Z,96295.38
2023-04-21T17:18:19.452Z,96285.38
2023-04-21T17:20:49.521Z,96283.78
2023-04-21T17:23:18.109Z,96291.28
2023-04-21T17:25:46.913Z,96287.72
2023-04-21T17:28:15.369Z,96289.25
2023-04-21T17:30:44.104Z,96292.72
2023-04-21T17:33:17.026Z,96294.59
2023-04-21T17:36:02.381Z,96292.16
2023-04-21T17:38:33.046Z,96290.47
2023-04-21T17:41:02.990Z,96295.09
2023-04-21T17:43:31.383Z,96292.94
2023-04-21T17:46:00.153Z,96294.19
2023-04-21T17:48:28.928Z,96293.47
2023-04-21T17:50:57.503Z,96295.09
2023-04-21T17:53:25.841Z,96294.25
2023-04-21T17:55:56.582Z,96296.19
2023-04-21T17:58:26.522Z,96303.22
2023-04-21T18:00:55.465Z,96301.56
2023-04-21T18:03:24.208Z,96301.03
2023-04-21T18:05:53.403Z,96306.41
2023-04-21T18:08:22.356Z,96305.13
2023-04-21T18:10:51.462Z,96303.97
2023-04-21T18:13:21.419Z,96308.41
2023-04-21T18:15:50.257Z,96308.44
2023-04-21T18:18:18.981Z,96310.66
2023-04-21T18:20:47.329Z,96307.19
2023-04-21T18:23:15.941Z,96307.69
2023-04-21T18:25:44.526Z,96302.44
2023-04-21T18:28:13.343Z,96313.28
2023-04-21T18:30:45.644Z,96320.88
2023-04-21T18:33:14.474Z,96323.13
2023-04-21T18:35:43.711Z,96327.41
2023-04-21T18:38:13.479Z,96331.16
2023-04-21T18:40:42.200Z,96334.81
2023-04-21T18:43:11.091Z,96334.28
2023-04-21T18:45:40.120Z,96345.00
2023-04-21T18:48:10.097Z,96341.84
2023-04-21T18:50:40.892Z,96343.94
2023-04-21T18:53:09.970Z,96348.91
2023-04-21T18:55:38.654Z,96356.28
2023-04-21T18:58:07.338Z,96354.53
2023-04-21T19:00:39.315Z,96353.56
2023-04-21T19:03:09.509Z,96364.06
2023-04-21T19:05:40.590Z,96364.41
2023-04-21T19:08:10.796Z,96355.84
2023-04-21T19:10:40.342Z,96365.50
2023-04-21T19:13:08.992Z,96368.63
2023-04-21T19:15:38.141Z,96369.50
2023-04-21T19:18:09.222Z,96373.13
2023-04-21T19:20:39.232Z,96371.28
2023-04-21T19:23:08.095Z,96369.53
2023-04-21T19:25:37.922Z,96370.00
2023-04-21T19:28:07.648Z,96372.16
2023-04-21T19:30:36.490Z,96377.06
2023-04-21T19:33:07.711Z,96374.69
2023-04-21T19:35:37.878Z,96374.31
2023-04-21T19:38:06.845Z,96376.59
2023-04-21T19:40:35.457Z,96374.81
2023-04-21T19:43:04.635Z,96379.38
2023-04-21T19:45:34.079Z,96373.81
2023-04-21T19:48:02.717Z,96376.63
2023-04-21T19:50:31.619Z,96382.81
2023-04-21T19:53:01.569Z,96382.34
2023-04-21T19:55:30.659Z,96378.34
2023-04-21T19:57:59.285Z,96384.41
2023-04-21T20:00:27.984Z,96387.00
2023-04-21T20:02:56.944Z,96386.31
2023-04-21T20:05:25.604Z,96386.91
2023-04-21T20:07:54.201Z,96379.81
2023-04-21T20:10:24.247Z,96388.47
2023-04-21T20:12:52.915Z,96389.03
2023-04-21T20:15:22.104Z,96394.19
2023-04-21T20:17:50.385Z,96398.69
2023-04-21T20:20:20.252Z,96399.06
2023-04-21T20:22:48.934Z,96397.66
2023-04-21T20:25:17.614Z,96402.44
2023-04-21T20:27:47.875Z,96394.94
2023-04-21T20:30:16.529Z,96403.91
2023-04-21T20:32:45.557Z,96399.69
2023-04-21T20:35:16.997Z,96395.47
2023-04-21T20:37:46.098Z,96411.66
2023-04-21T20:40:15.717Z,96402.91
2023-04-21T20:42:44.998Z,96410.56
2023-04-21T20:45:17.353Z,96398.81
2023-04-21T20:47:45.998Z,96397.66
2023-04-21T20:50:14.685Z,96415.56
2023-04-21T20:52:43.643Z,96412.34
2023-04-21T20:55:12.466Z,96413.25
2023-04-21T20:57:41.452Z,96422.59
2023-04-21T21:00:12.313Z,96439.59
2023-04-21T21:02:42.426Z,96457.88
2023-04-21T21:05:11.443Z,96444.09
2023-04-21T21:07:40.153Z,96430.28
2023-04-21T21:10:11.308Z,96436.72
2023-04-21T21:12:39.552Z,96435.00
2023-04-21T21:15:09.158Z,96449.41
2023-04-21T21:17:37.799Z,96441.44
2023-04-21T21:20:09.183Z,96450.53
2023-04-21T21:22:37.782Z,96448.94
2023-04-21T21:25:06.950Z,96445.25
2023-04-21T21:27:35.616Z,96446.06
2023-04-21T21:30:04.770Z,96437.56
2023-04-21T21:32:33.767Z,96434.69
2023-04-21T21:35:02.389Z,96436.84
2023-04-21T21:37:32.671Z,96437.16
2023-04-21T21:40:02.079Z,96439.16
2023-04-21T21:42:30.642Z,96437.56
2023-04-21T21:44:59.206Z,96434.28
2023-04-21T21:47:28.225Z,96432.91
2023-04-21T21:49:58.833Z,96435.50
2023-04-21T21:52:28.627Z,96422.78
2023-04-21T21:54:58.554Z,96425.19
2023-04-21T21:57:27.930Z,96423.50
2023-04-21T21:59:56.329Z,96421.63
2023-04-21T22:02:25.011Z,96418.13
2023-04-21T22:04:55.648Z,96418.03
2023-04-21T22:07:25.045Z,96418.41
2023-04-21T22:09:53.729Z,96412.06
2023-04-21T22:12:24.056Z,96418.25
2023-04-21T22:14:52.926Z,96411.09
2023-04-21T22:17:22.637Z,96402.00
2023-04-21T22:19:51.688Z,96406.44
2023-04-21T22:22:20.396Z,96398.44
2023-04-21T22:24:49.005Z,96405.28
2023-04-21T22:27:17.594Z,96401.13
2023-04-21T22:29:47.277Z,96393.84
2023-04-21T22:32:15.956Z,96393.09
2023-04-21T22:34:44.864Z,96396.94
2023-04-21T22:37:14.206Z,96404.03
2023-04-21T22:39:42.873Z,96405.16
2023-04-21T22:42:11.459Z,96406.50
2023-04-21T22:44:40.093Z,96411.81
2023-04-21T22:47:10.752Z,96414.41
2023-04-21T22:49:39.656Z,96417.66
2023-04-21T22:52:08.704Z,96427.50
2023-04-21T22:54:37.274Z,96429.94
2023-04-21T22:57:06.693Z,96428.31
2023-04-21T22:59:35.463Z,96428.22
2023-04-21T23:02:05.398Z,96421.38
2023-04-21T23:04:36.357Z,96429.28
2023-04-21T23:07:05.140Z,96431.06
2023-04-21T23:09:33.761Z,96437.88
2023-04-21T23:12:03.552Z,96427.03
2023-04-21T23:14:32.544Z,96434.53
2023-04-21T23:17:01.308Z,96436.78
2023-04-21T23:19:30.116Z,96430.06
2023-04-21T23:22:00.211Z,96420.72
2023-04-21T23:24:29.080Z,96428.63
2023-04-21T23:26:57.937Z,96421.81
2023-04-21T23:29:26.583Z,96425.88
2023-04-21T23:31:55.353Z,96425.97
2023-04-21T23:34:24.355Z,96429.38
2023-04-21T23:36:52.891Z,96432.78
2023-04-21T23:39:22.785Z,96432.50
2023-04-21T23:41:51.374Z,96431.84
2023-04-21T23:44:20.028Z,96429.31
2023-04-21T23:46:48.622Z,96425.84
2023-04-21T23:49:17.211Z,96429.00
2023-04-21T23:51:46.009Z,96422.78
2023-04-21T23:54:14.648Z,96428.94
2023-04-21T23:56:44.569Z,96432.59
2023-04-21T23:59:13.171Z,96429.41
